createdAt,value
2018-10-06T00:01:34.516Z,12.56
2018-10-06T00:04:02.617Z,12.53
2018-10-06T00:06:30.672Z,12.51
2018-10-06T00:08:58.733Z,12.47
2018-10-06T00:11:26.801Z,12.45
2018-10-06T00:13:54.873Z,12.42
2018-10-06T00:16:22.945Z,12.38
2018-10-06T00:18:51.022Z,12.34
2018-10-06T00:21:19.144Z,12.31
2018-10-06T00:23:47.260Z,12.27
2018-10-06T00:26:15.313Z,12.25
2018-10-06T00:28:43.378Z,12.19
2018-10-06T00:31:11.429Z,12.14
2018-10-06T00:33:39.551Z,12.08
2018-10-06T00:36:07.609Z,12.09
2018-10-06T00:38:35.697Z,12.06
2018-10-06T00:41:03.753Z,12.08
2018-10-06T00:43:31.825Z,12.07
2018-10-06T00:45:59.873Z,12.05
2018-10-06T00:48:27.966Z,12.01
2018-10-06T00:50:56.038Z,11.96
2018-10-06T00:53:24.104Z,11.94
2018-10-06T00:55:52.173Z,11.90
2018-10-06T00:58:20.228Z,11.88
2018-10-06T01:00:48.273Z,11.86
2018-10-06T01:03:16.341Z,11.84
2018-10-06T01:05:44.404Z,11.81
2018-10-06T01:08:12.474Z,11.79
2018-10-06T01:10:40.530Z,11.77
2018-10-06T01:13:08.589Z,11.74
2018-10-06T01:15:36.641Z,11.70
2018-10-06T01:18:04.722Z,11.66
2018-10-06T01:20:32.781Z,11.64
2018-10-06T01:23:00.841Z,11.63
2018-10-06T01:25:28.889Z,11.58
2018-10-06T01:27:56.981Z,11.55
2018-10-06T01:30:25.041Z,11.54
2018-10-06T01:32:53.096Z,11.54
2018-10-06T01:35:21.156Z,11.51
2018-10-06T01:37:49.215Z,11.47
2018-10-06T01:40:17.300Z,11.41
2018-10-06T01:42:45.349Z,11.39
2018-10-06T01:45:13.461Z,11.37
2018-10-06T01:47:41.523Z,11.36
2018-10-06T01:50:09.585Z,11.32
2018-10-06T01:52:37.646Z,11.27
2018-10-06T01:55:05.784Z,11.26
2018-10-06T01:57:33.820Z,11.23
2018-10-06T02:00:01.890Z,11.22
2018-10-06T02:02:29.941Z,11.17
2018-10-06T02:04:58.001Z,11.13
2018-10-06T02:07:26.053Z,11.09
2018-10-06T02:09:54.134Z,11.07
2018-10-06T02:12:22.189Z,11.04
2018-10-06T02:14:50.270Z,11.02
2018-10-06T02:17:18.375Z,10.98
2018-10-06T02:19:46.436Z,10.96
2018-10-06T02:22:14.519Z,10.94
2018-10-06T02:24:42.585Z,10.94
2018-10-06T02:27:10.645Z,10.91
2018-10-06T02:29:38.702Z,10.90
2018-10-06T02:32:06.803Z,10.87
2018-10-06T02:34:34.875Z,10.84
2018-10-06T02:37:02.941Z,10.82
2018-10-06T02:39:31.109Z,10.81
2018-10-06T02:41:59.373Z,10.81
2018-10-06T02:44:27.431Z,10.80
2018-10-06T02:46:55.625Z,10.78
2018-10-06T02:49:23.697Z,10.76
2018-10-06T02:51:51.760Z,10.75
2018-10-06T02:54:19.825Z,10.71
2018-10-06T02:56:47.938Z,10.68
2018-10-06T02:59:15.998Z,10.68
2018-10-06T03:01:44.050Z,10.65
2018-10-06T03:04:12.117Z,10.65
2018-10-06T03:06:40.269Z,10.65
2018-10-06T03:09:08.865Z,10.65
2018-10-06T03:11:37.024Z,10.64
2018-10-06T03:14:05.296Z,10.62
2018-10-06T03:16:33.361Z,10.60
2018-10-06T03:19:01.414Z,10.57
2018-10-06T03:21:29.530Z,10.57
2018-10-06T03:23:57.585Z,10.53
2018-10-06T03:26:25.771Z,10.51
2018-10-06T03:28:53.940Z,10.48
2018-10-06T03:31:22.018Z,10.45
2018-10-06T03:33:50.079Z,10.45
2018-10-06T03:36:18.157Z,10.44
2018-10-06T03:38:46.218Z,10.38
2018-10-06T03:41:14.304Z,10.33
2018-10-06T03:43:42.355Z,10.30
2018-10-06T03:46:11.357Z,10.30
2018-10-06T03:48:39.409Z,10.28
2018-10-06T03:51:07.501Z,10.24
2018-10-06T03:53:35.565Z,10.21
2018-10-06T03:56:03.633Z,10.18
2018-10-06T03:58:31.992Z,10.14
2018-10-06T04:01:00.094Z,10.14
2018-10-06T04:03:28.170Z,10.12
2018-10-06T04:05:56.328Z,10.09
2018-10-06T04:08:24.388Z,10.06
2018-10-06T04:10:52.561Z,10.02
2018-10-06T04:13:20.634Z,10.01
2018-10-06T04:15:49.014Z,10.01
2018-10-06T04:18:17.080Z,10.01
2018-10-06T04:20:45.153Z,10.02
2018-10-06T04:23:13.221Z,10.00
2018-10-06T04:25:41.285Z,9.98
2018-10-06T04:28:09.358Z,9.97
2018-10-06T04:30:37.489Z,9.95
2018-10-06T04:33:05.581Z,9.95
2018-10-06T04:35:33.649Z,9.93
2018-10-06T04:38:01.737Z,9.90
2018-10-06T04:40:29.797Z,9.89
2018-10-06T04:42:57.886Z,9.83
2018-10-06T04:45:25.945Z,9.82
2018-10-06T04:47:54.009Z,9.80
2018-10-06T04:50:22.097Z,9.81
2018-10-06T04:52:50.145Z,9.80
2018-10-06T04:55:18.246Z,9.75
2018-10-06T04:57:46.298Z,9.71
2018-10-06T05:00:14.354Z,9.68
2018-10-06T05:02:42.425Z,9.65
2018-10-06T05:05:10.489Z,9.60
2018-10-06T05:07:38.549Z,9.59
2018-10-06T05:10:06.654Z,9.56
2018-10-06T05:12:34.750Z,9.57
2018-10-06T05:15:02.789Z,9.57
2018-10-06T05:17:30.874Z,9.56
2018-10-06T05:19:58.926Z,9.50
2018-10-06T05:22:27.015Z,9.46
2018-10-06T05:24:55.065Z,9.44
2018-10-06T05:27:23.145Z,9.44
2018-10-06T05:29:51.208Z,9.45
2018-10-06T05:32:19.288Z,9.45
2018-10-06T05:34:47.358Z,9.43
2018-10-06T05:37:15.526Z,9.40
2018-10-06T05:39:43.590Z,9.37
2018-10-06T05:42:11.682Z,9.37
2018-10-06T05:44:39.737Z,9.36
2018-10-06T05:47:07.806Z,9.36
2018-10-06T05:49:35.880Z,9.37
2018-10-06T05:52:03.998Z,9.40
2018-10-06T05:54:32.090Z,9.44
2018-10-06T05:57:00.164Z,9.46
2018-10-06T05:59:28.222Z,9.46
2018-10-06T06:01:56.345Z,9.47
2018-10-06T06:04:24.413Z,9.48
2018-10-06T06:06:52.485Z,9.48
2018-10-06T06:09:20.612Z,9.48
2018-10-06T06:11:48.632Z,9.50
2018-10-06T06:14:16.713Z,9.54
2018-10-06T06:16:44.783Z,9.56
2018-10-06T06:19:12.839Z,9.59
2018-10-06T06:21:40.901Z,9.62
2018-10-06T06:24:08.995Z,9.67
2018-10-06T06:26:37.077Z,9.72
2018-10-06T06:29:05.150Z,9.78
2018-10-06T06:31:33.255Z,9.85
2018-10-06T06:34:01.332Z,9.88
2018-10-06T06:36:29.420Z,9.92
2018-10-06T06:38:57.482Z,9.96
2018-10-06T06:41:25.545Z,10.03
2018-10-06T06:43:53.694Z,10.11
2018-10-06T06:46:21.690Z,10.21
2018-10-06T06:48:49.754Z,10.33
2018-10-06T06:51:17.857Z,10.47
2018-10-06T06:53:45.974Z,10.65
2018-10-06T06:56:14.042Z,10.84
2018-10-06T06:58:42.118Z,11.08
2018-10-06T07:01:10.241Z,11.32
2018-10-06T07:03:38.317Z,11.60
2018-10-06T07:06:06.430Z,11.91
2018-10-06T07:08:34.505Z,12.23
2018-10-06T07:11:02.572Z,12.57
2018-10-06T07:13:30.670Z,12.92
2018-10-06T07:15:58.769Z,13.24
2018-10-06T07:18:26.916Z,13.57
2018-10-06T07:20:54.994Z,13.85
2018-10-06T07:23:23.078Z,14.11
2018-10-06T07:25:51.137Z,14.34
2018-10-06T07:28:19.219Z,14.52
2018-10-06T07:30:47.283Z,14.68
2018-10-06T07:33:15.365Z,14.83
2018-10-06T07:35:43.545Z,14.97
2018-10-06T07:38:11.597Z,15.10
2018-10-06T07:40:39.665Z,15.22
2018-10-06T07:43:07.822Z,15.34
2018-10-06T07:45:35.881Z,15.45
2018-10-06T07:48:03.958Z,15.55
2018-10-06T07:50:32.017Z,15.64
2018-10-06T07:53:00.133Z,15.72
2018-10-06T07:55:28.205Z,15.82
2018-10-06T07:57:56.289Z,15.91
2018-10-06T08:00:24.370Z,16.05
2018-10-06T08:02:52.458Z,16.16
2018-10-06T08:05:20.505Z,16.30
2018-10-06T08:07:48.629Z,16.41
2018-10-06T08:10:16.697Z,16.50
2018-10-06T08:12:44.845Z,16.61
2018-10-06T08:15:12.913Z,16.71
2018-10-06T08:17:41.078Z,16.76
2018-10-06T08:20:09.139Z,16.83
2018-10-06T08:22:37.220Z,16.85
2018-10-06T08:25:05.718Z,16.87
2018-10-06T08:27:33.818Z,16.88
2018-10-06T08:30:01.886Z,16.89
2018-10-06T08:32:29.952Z,16.90
2018-10-06T08:34:58.034Z,16.91
2018-10-06T08:37:26.091Z,16.93
2018-10-06T08:39:54.166Z,16.95
2018-10-06T08:42:22.229Z,17.01
2018-10-06T08:44:50.306Z,17.07
2018-10-06T08:47:18.378Z,17.10
2018-10-06T08:49:46.518Z,17.16
2018-10-06T08:52:14.552Z,17.20
2018-10-06T08:54:42.646Z,17.27
2018-10-06T08:57:10.704Z,17.34
2018-10-06T08:59:38.785Z,17.41
2018-10-06T09:02:07.169Z,17.47
2018-10-06T09:04:35.234Z,17.53
2018-10-06T09:07:03.322Z,17.62
2018-10-06T09:09:31.394Z,17.67
2018-10-06T09:11:59.469Z,17.78
2018-10-06T09:14:27.561Z,17.88
2018-10-06T09:16:55.654Z,17.98
2018-10-06T09:19:23.725Z,18.11
2018-10-06T09:21:51.800Z,18.19
2018-10-06T09:24:19.889Z,18.27
2018-10-06T09:26:47.945Z,18.32
2018-10-06T09:29:16.028Z,18.36
2018-10-06T09:31:44.103Z,18.40
2018-10-06T09:34:12.189Z,18.46
2018-10-06T09:36:40.262Z,18.50
2018-10-06T09:39:09.289Z,18.54
2018-10-06T09:41:37.360Z,18.60
2018-10-06T09:44:05.529Z,18.64
2018-10-06T09:46:33.584Z,18.69
2018-10-06T09:49:01.682Z,18.70
2018-10-06T09:51:29.808Z,18.73
2018-10-06T09:53:57.890Z,18.78
2018-10-06T09:56:25.960Z,18.83
2018-10-06T09:58:54.032Z,18.90
2018-10-06T10:01:27.597Z,18.98
2018-10-06T10:04:01.168Z,19.07
2018-10-06T10:06:29.249Z,19.18
2018-10-06T10:08:57.338Z,19.29
2018-10-06T10:11:25.437Z,19.43
2018-10-06T10:13:53.523Z,19.56
2018-10-06T10:16:21.592Z,19.70
2018-10-06T10:18:49.717Z,19.82
2018-10-06T10:21:17.799Z,19.99
2018-10-06T10:23:45.919Z,20.23
2018-10-06T10:26:13.961Z,20.46
2018-10-06T10:28:42.042Z,20.75
2018-10-06T10:31:10.137Z,20.98
2018-10-06T10:33:38.261Z,21.22
2018-10-06T10:36:06.956Z,21.45
2018-10-06T10:38:35.009Z,21.70
2018-10-06T10:41:03.100Z,21.94
2018-10-06T10:43:31.274Z,22.14
2018-10-06T10:45:59.366Z,22.28
2018-10-06T10:48:27.580Z,22.42
2018-10-06T10:50:55.690Z,22.60
2018-10-06T10:53:23.765Z,22.83
2018-10-06T10:55:51.837Z,23.08
2018-10-06T10:58:19.905Z,23.33
2018-10-06T11:00:47.997Z,23.58
2018-10-06T11:03:16.078Z,23.84
2018-10-06T11:05:44.209Z,24.10
2018-10-06T11:08:12.285Z,24.33
2018-10-06T11:10:40.377Z,24.50
2018-10-06T11:13:08.705Z,24.70
2018-10-06T11:15:36.788Z,24.89
2018-10-06T11:18:05.048Z,25.01
2018-10-06T11:20:33.138Z,25.19
2018-10-06T11:23:01.221Z,25.40
2018-10-06T11:25:29.301Z,25.55
2018-10-06T11:27:57.369Z,25.70
2018-10-06T11:30:25.441Z,25.80
2018-10-06T11:32:53.585Z,26.02
2018-10-06T11:35:21.673Z,26.16
2018-10-06T11:37:49.953Z,26.35
2018-10-06T11:40:17.905Z,26.55
2018-10-06T11:42:45.977Z,26.74
2018-10-06T11:45:14.074Z,26.82
2018-10-06T11:47:42.204Z,26.94
2018-10-06T11:50:10.283Z,27.06
2018-10-06T11:52:38.365Z,27.12
2018-10-06T11:55:06.461Z,27.19
2018-10-06T11:57:34.593Z,27.11
2018-10-06T12:00:02.724Z,27.07
2018-10-06T12:02:30.755Z,27.17
2018-10-06T12:04:58.910Z,27.33
2018-10-06T12:07:27.029Z,27.47
2018-10-06T12:09:55.149Z,27.57
2018-10-06T12:12:23.222Z,27.57
2018-10-06T12:14:51.392Z,27.56
2018-10-06T12:17:19.572Z,27.59
2018-10-06T12:19:47.637Z,27.61
2018-10-06T12:22:15.809Z,27.62
2018-10-06T12:24:43.869Z,27.65
2018-10-06T12:27:11.945Z,27.72
2018-10-06T12:29:40.015Z,27.74
2018-10-06T12:32:08.089Z,27.81
2018-10-06T12:34:36.247Z,27.78
2018-10-06T12:37:04.329Z,27.75
2018-10-06T12:39:32.394Z,27.79
2018-10-06T12:42:00.532Z,27.75
2018-10-06T12:44:28.673Z,27.69
2018-10-06T12:46:56.745Z,27.73
2018-10-06T12:49:24.884Z,27.75
2018-10-06T12:51:52.961Z,27.81
2018-10-06T12:54:21.037Z,27.88
2018-10-06T12:56:49.121Z,27.84
2018-10-06T12:59:17.181Z,27.81
2018-10-06T13:01:45.261Z,27.81
2018-10-06T13:04:13.329Z,27.81
2018-10-06T13:06:41.473Z,27.82
2018-10-06T13:09:10.869Z,27.81
2018-10-06T13:11:39.132Z,27.73
2018-10-06T13:14:07.242Z,27.63
2018-10-06T13:16:35.309Z,27.60
2018-10-06T13:19:03.389Z,27.52
2018-10-06T13:21:31.618Z,27.39
2018-10-06T13:23:59.709Z,27.28
2018-10-06T13:26:27.903Z,27.21
2018-10-06T13:28:55.971Z,27.08
2018-10-06T13:31:24.033Z,27.04
2018-10-06T13:33:52.189Z,27.01
2018-10-06T13:36:20.269Z,26.91
2018-10-06T13:38:48.350Z,26.86
2018-10-06T13:41:16.420Z,26.78
2018-10-06T13:43:44.517Z,26.72
2018-10-06T13:46:12.637Z,26.69
2018-10-06T13:48:40.813Z,26.67
2018-10-06T13:51:09.078Z,26.62
2018-10-06T13:53:37.163Z,26.55
2018-10-06T13:56:05.307Z,26.50
2018-10-06T13:58:33.434Z,26.46
2018-10-06T14:01:01.471Z,26.40
2018-10-06T14:03:29.547Z,26.34
2018-10-06T14:05:57.613Z,26.33
2018-10-06T14:08:25.694Z,26.32
2018-10-06T14:10:53.770Z,26.29
2018-10-06T14:13:21.841Z,26.27
2018-10-06T14:15:50.101Z,26.26
2018-10-06T14:18:18.171Z,26.25
2018-10-06T14:20:46.238Z,26.24
2018-10-06T14:23:14.310Z,26.24
2018-10-06T14:25:42.385Z,26.25
2018-10-06T14:28:10.506Z,26.24
2018-10-06T14:30:38.688Z,26.21
2018-10-06T14:33:06.821Z,26.15
2018-10-06T14:35:34.897Z,26.10
2018-10-06T14:38:02.984Z,26.02
2018-10-06T14:40:31.102Z,25.97
2018-10-06T14:42:59.251Z,25.90
2018-10-06T14:45:27.420Z,25.84
2018-10-06T14:47:55.517Z,25.74
2018-10-06T14:50:23.605Z,25.65
2018-10-06T14:52:51.677Z,25.52
2018-10-06T14:55:19.745Z,25.38
2018-10-06T14:57:47.812Z,25.27
2018-10-06T15:00:15.922Z,25.18
2018-10-06T15:02:44.037Z,25.10
2018-10-06T15:05:12.217Z,25.02
2018-10-06T15:07:40.298Z,24.92
2018-10-06T15:10:08.434Z,24.83
2018-10-06T15:12:36.522Z,24.76
2018-10-06T15:15:04.886Z,24.69
2018-10-06T15:17:32.965Z,24.60
2018-10-06T15:20:01.048Z,24.55
2018-10-06T15:22:29.119Z,24.47
2018-10-06T15:24:57.191Z,24.40
2018-10-06T15:27:25.269Z,24.30
2018-10-06T15:29:53.349Z,24.21
2018-10-06T15:32:21.407Z,24.10
2018-10-06T15:34:49.529Z,23.99
2018-10-06T15:37:17.600Z,23.90
2018-10-06T15:39:45.666Z,23.79
2018-10-06T15:42:13.780Z,23.66
2018-10-06T15:44:41.857Z,23.60
2018-10-06T15:47:09.920Z,23.57
2018-10-06T15:49:38.081Z,23.57
2018-10-06T15:52:06.569Z,23.56
2018-10-06T15:54:34.637Z,23.46
2018-10-06T15:57:02.734Z,23.31
2018-10-06T15:59:30.806Z,23.20
2018-10-06T16:01:58.954Z,23.07
2018-10-06T16:04:27.046Z,22.94
2018-10-06T16:06:55.124Z,22.83
2018-10-06T16:09:23.266Z,22.69
2018-10-06T16:11:51.388Z,22.56
2018-10-06T16:14:19.509Z,22.41
2018-10-06T16:16:47.777Z,22.27
2018-10-06T16:19:15.857Z,22.14
2018-10-06T16:21:44.091Z,21.99
2018-10-06T16:24:12.178Z,21.89
2018-10-06T16:26:40.362Z,21.74
2018-10-06T16:29:08.449Z,21.62
2018-10-06T16:31:36.525Z,21.50
2018-10-06T16:34:04.682Z,21.35
2018-10-06T16:36:32.752Z,21.23
2018-10-06T16:39:00.981Z,21.10
2018-10-06T16:41:29.094Z,20.98
2018-10-06T16:43:57.186Z,20.88
2018-10-06T16:46:25.266Z,20.79
2018-10-06T16:48:53.412Z,20.69
2018-10-06T16:51:21.505Z,20.61
2018-10-06T16:53:49.622Z,20.52
2018-10-06T16:56:18.121Z,20.41
2018-10-06T16:58:46.201Z,20.33
2018-10-06T17:01:14.277Z,20.23
2018-10-06T17:03:42.376Z,20.13
2018-10-06T17:06:10.476Z,20.03
2018-10-06T17:08:38.577Z,19.92
2018-10-06T17:11:06.652Z,19.81
2018-10-06T17:13:34.749Z,19.72
2018-10-06T17:16:02.842Z,19.59
2018-10-06T17:18:30.978Z,19.50
2018-10-06T17:20:59.815Z,19.42
2018-10-06T17:23:27.914Z,19.32
2018-10-06T17:25:55.996Z,19.23
2018-10-06T17:28:24.081Z,19.16
2018-10-06T17:30:52.169Z,19.08
2018-10-06T17:33:20.274Z,19.02
2018-10-06T17:35:48.365Z,18.96
2018-10-06T17:38:16.473Z,18.89
2018-10-06T17:40:44.553Z,18.81
2018-10-06T17:43:12.625Z,18.75
2018-10-06T17:45:40.709Z,18.70
2018-10-06T17:48:08.791Z,18.64
2018-10-06T17:50:37.098Z,18.59
2018-10-06T17:53:04.982Z,18.53
2018-10-06T17:55:33.069Z,18.46
2018-10-06T17:58:01.146Z,18.41
2018-10-06T18:00:29.236Z,18.37
2018-10-06T18:02:57.321Z,18.32
2018-10-06T18:05:25.405Z,18.29
2018-10-06T18:07:53.479Z,18.25
2018-10-06T18:10:21.565Z,18.21
2018-10-06T18:12:49.657Z,18.18
2018-10-06T18:15:17.738Z,18.14
2018-10-06T18:17:45.809Z,18.12
2018-10-06T18:20:13.972Z,18.08
2018-10-06T18:22:41.993Z,18.04
2018-10-06T18:25:10.079Z,18.00
2018-10-06T18:27:38.166Z,17.97
2018-10-06T18:30:06.273Z,17.92
2018-10-06T18:32:34.356Z,17.85
2018-10-06T18:35:02.457Z,17.80
2018-10-06T18:37:30.541Z,17.75
2018-10-06T18:39:58.628Z,17.72
2018-10-06T18:42:26.709Z,17.67
2018-10-06T18:44:54.794Z,17.63
2018-10-06T18:47:22.882Z,17.59
2018-10-06T18:49:50.961Z,17.52
2018-10-06T18:52:19.079Z,17.46
2018-10-06T18:54:47.129Z,17.42
2018-10-06T18:57:15.226Z,17.36
2018-10-06T18:59:43.314Z,17.30
2018-10-06T19:02:11.409Z,17.23
2018-10-06T19:04:39.488Z,17.17
2018-10-06T19:07:07.573Z,17.12
2018-10-06T19:09:35.653Z,17.02
2018-10-06T19:12:03.789Z,16.98
2018-10-06T19:14:31.876Z,16.95
2018-10-06T19:17:00.017Z,16.91
2018-10-06T19:19:28.109Z,16.88
2018-10-06T19:21:56.218Z,16.78
2018-10-06T19:24:24.312Z,16.72
2018-10-06T19:26:52.471Z,16.69
2018-10-06T19:29:20.549Z,16.65
2018-10-06T19:31:48.654Z,16.63
2018-10-06T19:34:16.749Z,16.58
2018-10-06T19:36:44.828Z,16.54
2018-10-06T19:39:12.905Z,16.51
2018-10-06T19:41:40.984Z,16.44
2018-10-06T19:44:09.073Z,16.41
2018-10-06T19:46:37.198Z,16.40
2018-10-06T19:49:05.309Z,16.37
2018-10-06T19:51:33.709Z,16.34
2018-10-06T19:54:01.977Z,16.32
2018-10-06T19:56:30.102Z,16.31
2018-10-06T19:58:58.238Z,16.29
2018-10-06T20:01:26.333Z,16.26
2018-10-06T20:03:54.454Z,16.24
2018-10-06T20:06:22.509Z,16.19
2018-10-06T20:08:50.597Z,16.16
2018-10-06T20:11:18.696Z,16.14
2018-10-06T20:13:46.861Z,16.12
2018-10-06T20:16:14.950Z,16.07
2018-10-06T20:18:43.025Z,16.06
2018-10-06T20:21:11.132Z,16.00
2018-10-06T20:23:39.209Z,15.98
2018-10-06T20:26:07.845Z,15.93
2018-10-06T20:28:35.938Z,15.89
2018-10-06T20:31:04.022Z,15.89
2018-10-06T20:33:32.149Z,15.84
2018-10-06T20:36:00.234Z,15.81
2018-10-06T20:38:28.333Z,15.78
2018-10-06T20:40:56.423Z,15.75
2018-10-06T20:43:24.521Z,15.73
2018-10-06T20:45:52.602Z,15.71
2018-10-06T20:48:20.685Z,15.67
2018-10-06T20:50:48.757Z,15.65
2018-10-06T20:53:16.858Z,15.62
2018-10-06T20:55:44.946Z,15.57
2018-10-06T20:58:13.077Z,15.54
2018-10-06T21:00:41.166Z,15.51
2018-10-06T21:03:09.274Z,15.47
2018-10-06T21:05:37.366Z,15.45
2018-10-06T21:08:05.665Z,15.42
2018-10-06T21:10:33.742Z,15.40
2018-10-06T21:13:01.885Z,15.38
2018-10-06T21:15:29.970Z,15.36
2018-10-06T21:17:58.053Z,15.35
2018-10-06T21:20:26.131Z,15.36
2018-10-06T21:22:54.226Z,15.35
2018-10-06T21:25:22.338Z,15.35
2018-10-06T21:27:50.433Z,15.36
2018-10-06T21:30:18.557Z,15.35
2018-10-06T21:32:46.677Z,15.34
2018-10-06T21:35:14.771Z,15.32
2018-10-06T21:37:42.865Z,15.31
2018-10-06T21:40:10.984Z,15.29
2018-10-06T21:42:39.074Z,15.28
2018-10-06T21:45:07.221Z,15.26
2018-10-06T21:47:35.328Z,15.27
2018-10-06T21:50:03.414Z,15.28
2018-10-06T21:52:31.566Z,15.27
2018-10-06T21:54:59.770Z,15.26
2018-10-06T21:57:27.893Z,15.27
2018-10-06T21:59:55.965Z,15.28
2018-10-06T22:02:24.050Z,15.30
2018-10-06T22:04:52.133Z,15.35
2018-10-06T22:07:20.473Z,15.38
2018-10-06T22:09:48.621Z,15.44
2018-10-06T22:12:16.740Z,15.52
2018-10-06T22:14:44.830Z,15.57
2018-10-06T22:17:12.901Z,15.62
2018-10-06T22:19:40.988Z,15.66
2018-10-06T22:22:09.072Z,15.71
2018-10-06T22:24:37.153Z,15.74
2018-10-06T22:27:05.287Z,15.77
2018-10-06T22:29:33.355Z,15.80
2018-10-06T22:32:01.433Z,15.83
2018-10-06T22:34:29.530Z,15.85
2018-10-06T22:36:57.605Z,15.88
2018-10-06T22:39:25.729Z,15.90
2018-10-06T22:41:53.819Z,15.91
2018-10-06T22:44:21.961Z,15.93
2018-10-06T22:46:50.043Z,15.95
2018-10-06T22:49:18.126Z,15.96
2018-10-06T22:51:46.208Z,15.99
2018-10-06T22:54:14.298Z,16.03
2018-10-06T22:56:42.369Z,16.06
2018-10-06T22:59:10.438Z,16.09
2018-10-06T23:01:38.521Z,16.15
2018-10-06T23:04:06.682Z,16.16
2018-10-06T23:06:34.749Z,16.20
2018-10-06T23:09:02.825Z,16.24
2018-10-06T23:11:30.901Z,16.26
2018-10-06T23:13:58.991Z,16.28
2018-10-06T23:16:27.078Z,16.31
2018-10-06T23:18:55.187Z,16.34
2018-10-06T23:21:23.281Z,16.36
2018-10-06T23:23:51.353Z,16.37
2018-10-06T23:26:19.430Z,16.36
2018-10-06T23:28:47.501Z,16.38
2018-10-06T23:31:15.572Z,16.36
2018-10-06T23:33:43.689Z,16.36
2018-10-06T23:36:11.762Z,16.32
2018-10-06T23:38:39.845Z,16.29
2018-10-06T23:41:07.961Z,16.28
2018-10-06T23:43:36.046Z,16.29
2018-10-06T23:46:04.114Z,16.27
2018-10-06T23:48:32.220Z,16.23
2018-10-06T23:51:00.314Z,16.21
2018-10-06T23:53:28.385Z,16.17
2018-10-06T23:55:56.469Z,16.05
2018-10-06T23:58:24.533Z,15.98
